Terminal Aerodrome Forecast
Issued by NWS

Home | Current Version | Previous Version | Text Only | Print | Product List | Glossary On
Versions: 1 2 3 4 5 6 7 8 9 10 11 12 13 14 15 16 17 18 19 20
000
FTUS42 KKEY 300329 AAA
TAFMTH
TAF AMD
KMTH 300329Z 3003/3024 08012G17KT P6SM VCTS SCT025 BKN050CB OVC100
      TEMPO 3003/3007 VRB10G25KT 2SM +TSRA FEW010 BKN030CB
     FM300900 14013G18KT P6SM VCSH SCT020 BKN050 OVC100=

USA.gov is the U.S. government's official web portal to all federal, state and local government web resources and services.